createdAt,value
2022-08-22T00:01:32.270Z,83.15
2022-08-22T00:02:48.495Z,74.79
2022-08-22T00:02:59.281Z,82.81
2022-08-22T00:04:34.405Z,83.20
2022-08-22T00:07:03.384Z,83.39
2022-08-22T00:10:02.485Z,83.25
2022-08-22T00:12:40.763Z,83.45
2022-08-22T00:15:42.123Z,83.57
2022-08-22T00:18:20.125Z,83.77
2022-08-22T00:21:08.510Z,83.80
2022-08-22T00:23:56.503Z,83.78
2022-08-22T00:26:24.488Z,83.81
2022-08-22T00:29:07.891Z,83.86
2022-08-22T00:31:41.250Z,83.91
2022-08-22T00:34:14.712Z,83.99
2022-08-22T00:37:03.805Z,83.94
2022-08-22T00:39:45.726Z,84.03
2022-08-22T00:42:35.456Z,83.98
2022-08-22T00:45:38.451Z,84.12
2022-08-22T00:48:22.275Z,84.19
2022-08-22T00:51:16.540Z,84.30
2022-08-22T00:53:59.208Z,84.40
2022-08-22T00:56:27.132Z,84.55
2022-08-22T00:59:11.982Z,84.61
2022-08-22T01:02:02.015Z,84.71
2022-08-22T01:04:40.542Z,84.71
2022-08-22T01:07:20.256Z,84.73
2022-08-22T01:10:19.378Z,84.80
2022-08-22T01:13:20.952Z,84.96
2022-08-22T01:15:53.756Z,85.15
2022-08-22T01:19:12.881Z,85.26
2022-08-22T01:22:02.722Z,85.15
2022-08-22T01:25:07.926Z,85.40
2022-08-22T01:28:14.422Z,85.37
2022-08-22T01:31:01.021Z,85.33
2022-08-22T01:34:15.278Z,85.38
2022-08-22T01:37:02.115Z,85.27
2022-08-22T01:40:18.070Z,85.30
2022-08-22T01:43:15.965Z,85.35
2022-08-22T01:45:52.712Z,85.29
2022-08-22T01:48:32.037Z,85.16
2022-08-22T01:51:26.192Z,85.31
2022-08-22T01:54:32.670Z,85.32
2022-08-22T01:57:08.136Z,85.38
2022-08-22T01:59:42.375Z,85.47
2022-08-22T02:02:30.216Z,85.42
2022-08-22T02:05:24.037Z,85.42
2022-08-22T02:07:56.828Z,85.39
2022-08-22T02:11:01.869Z,85.34
2022-08-22T02:13:32.972Z,85.48
2022-08-22T02:16:13.025Z,85.54
2022-08-22T02:18:57.075Z,85.55
2022-08-22T02:21:40.918Z,85.63
2022-08-22T02:24:33.550Z,85.58
2022-08-22T02:27:22.706Z,85.62
2022-08-22T02:30:03.629Z,85.72
2022-08-22T02:32:41.149Z,85.70
2022-08-22T02:35:33.716Z,85.63
2022-08-22T02:38:19.737Z,85.63
2022-08-22T02:41:07.674Z,85.59
2022-08-22T02:44:02.450Z,85.54
2022-08-22T02:46:51.894Z,85.57
2022-08-22T02:49:27.481Z,85.52
2022-08-22T02:52:19.315Z,85.48
2022-08-22T02:55:35.469Z,85.52
2022-08-22T02:58:21.347Z,85.47
2022-08-22T03:01:13.333Z,85.39
2022-08-22T03:03:46.014Z,85.34
2022-08-22T03:06:38.499Z,85.35
2022-08-22T03:09:15.360Z,85.38
2022-08-22T03:11:49.497Z,85.38
2022-08-22T03:14:48.634Z,85.39
2022-08-22T03:17:52.685Z,85.35
2022-08-22T03:20:45.978Z,85.42
2022-08-22T03:23:31.663Z,85.38
2022-08-22T03:26:25.374Z,85.33
2022-08-22T03:29:01.574Z,85.33
2022-08-22T03:31:32.031Z,85.30
2022-08-22T03:34:27.334Z,85.24
2022-08-22T03:37:21.239Z,85.28
2022-08-22T03:40:02.895Z,85.31
2022-08-22T03:43:00.196Z,85.24
2022-08-22T03:45:53.097Z,85.19
2022-08-22T03:48:51.044Z,85.27
2022-08-22T03:51:33.810Z,85.23
2022-08-22T03:54:22.085Z,85.10
2022-08-22T03:57:14.936Z,85.00
2022-08-22T03:59:55.970Z,85.01
2022-08-22T04:03:07.965Z,85.03
2022-08-22T04:06:13.634Z,85.07
2022-08-22T04:08:50.621Z,85.00
2022-08-22T04:12:00.769Z,85.21
2022-08-22T04:14:42.366Z,85.50
2022-08-22T04:17:41.325Z,85.52
2022-08-22T04:20:09.805Z,85.65
2022-08-22T04:23:14.296Z,85.51
2022-08-22T04:26:12.285Z,85.34
2022-08-22T04:28:51.082Z,85.29
2022-08-22T04:31:28.122Z,85.18
2022-08-22T04:34:15.774Z,85.18
2022-08-22T04:36:50.811Z,84.96
2022-08-22T04:39:28.266Z,84.72
2022-08-22T04:42:32.575Z,84.56
2022-08-22T04:45:05.994Z,84.34
2022-08-22T04:47:46.047Z,84.13
2022-08-22T04:50:29.628Z,83.91
2022-08-22T04:53:27.531Z,83.68
2022-08-22T04:56:17.414Z,83.43
2022-08-22T04:59:05.356Z,83.17
2022-08-22T05:01:44.536Z,83.00
2022-08-22T05:04:23.914Z,82.79
2022-08-22T05:07:00.083Z,82.46
2022-08-22T05:09:33.315Z,82.15
2022-08-22T05:12:09.283Z,81.85
2022-08-22T05:14:43.048Z,81.65
2022-08-22T05:17:16.995Z,81.49
2022-08-22T05:19:53.814Z,81.18
2022-08-22T05:22:28.728Z,81.11
2022-08-22T05:25:11.678Z,81.06
2022-08-22T05:27:45.490Z,80.94
2022-08-22T05:30:22.250Z,79.13
2022-08-22T05:33:04.651Z,76.87
2022-08-22T05:35:58.073Z,73.75
2022-08-22T05:38:35.198Z,71.38
2022-08-22T05:41:10.951Z,69.26
2022-08-22T05:43:43.338Z,66.41
2022-08-22T05:46:43.606Z,64.45
2022-08-22T05:49:37.425Z,62.62
2022-08-22T05:52:30.170Z,61.12
2022-08-22T05:55:26.402Z,59.15
2022-08-22T05:58:15.075Z,58.90
2022-08-22T06:00:48.876Z,57.96
2022-08-22T06:03:34.033Z,56.82
2022-08-22T06:06:13.787Z,55.84
2022-08-22T06:09:05.938Z,55.47
2022-08-22T06:12:00.107Z,55.37
2022-08-22T06:14:42.848Z,54.58
2022-08-22T06:17:17.316Z,53.84
2022-08-22T06:19:48.827Z,53.75
2022-08-22T06:22:25.425Z,53.60
2022-08-22T06:24:57.415Z,54.02
2022-08-22T06:27:31.110Z,53.46
2022-08-22T06:30:04.139Z,53.71
2022-08-22T06:32:58.435Z,54.38
2022-08-22T06:36:26.164Z,54.98
2022-08-22T06:39:05.965Z,55.33
2022-08-22T06:41:39.896Z,55.73
2022-08-22T06:44:10.454Z,56.39
2022-08-22T06:46:39.436Z,57.37
2022-08-22T06:49:09.893Z,57.97
2022-08-22T06:51:39.499Z,58.34
2022-08-22T06:54:17.174Z,58.64
2022-08-22T06:56:50.295Z,58.34
2022-08-22T06:59:24.126Z,58.41
2022-08-22T07:01:55.026Z,58.85
2022-08-22T07:04:26.911Z,59.20
2022-08-22T07:06:59.335Z,59.84
2022-08-22T07:09:40.260Z,60.37
2022-08-22T07:12:19.794Z,60.40
2022-08-22T07:14:51.557Z,60.05
2022-08-22T07:17:37.846Z,59.40
2022-08-22T07:20:28.780Z,59.32
2022-08-22T07:23:05.728Z,58.61
2022-08-22T07:26:09.296Z,57.41
2022-08-22T07:28:51.186Z,56.15
2022-08-22T07:31:33.652Z,54.80
2022-08-22T07:34:44.899Z,53.97
2022-08-22T07:37:18.426Z,52.90
2022-08-22T07:40:03.707Z,52.91
2022-08-22T07:43:01.659Z,52.81
2022-08-22T07:45:49.588Z,52.43
2022-08-22T07:48:29.865Z,51.66
2022-08-22T07:51:02.955Z,51.58
2022-08-22T07:53:36.660Z,50.73
2022-08-22T07:56:08.201Z,50.61
2022-08-22T07:58:39.784Z,50.33
2022-08-22T08:01:17.112Z,50.44
2022-08-22T08:03:53.455Z,49.58
2022-08-22T08:06:24.898Z,48.39
2022-08-22T08:08:54.534Z,47.76
2022-08-22T08:11:26.242Z,48.14
2022-08-22T08:14:00.895Z,48.57
2022-08-22T08:16:34.679Z,47.53
2022-08-22T08:19:03.235Z,47.41
2022-08-22T08:21:37.631Z,47.06
2022-08-22T08:24:09.088Z,46.96
2022-08-22T08:27:04.014Z,46.58
2022-08-22T08:29:33.625Z,46.25
2022-08-22T08:32:02.395Z,46.39
2022-08-22T08:34:35.240Z,46.64
2022-08-22T08:37:15.219Z,46.65
2022-08-22T08:39:50.037Z,46.82
2022-08-22T08:42:59.595Z,47.54
2022-08-22T08:45:36.389Z,48.54
2022-08-22T08:48:38.975Z,48.35
2022-08-22T08:51:51.155Z,48.22
2022-08-22T08:54:51.942Z,48.37
2022-08-22T08:57:45.583Z,48.79
2022-08-22T09:00:40.925Z,49.26
2022-08-22T09:03:27.330Z,48.95
2022-08-22T09:06:05.885Z,48.42
2022-08-22T09:08:55.548Z,49.25
2022-08-22T09:11:36.059Z,50.20
2022-08-22T09:14:41.105Z,50.57
2022-08-22T09:17:30.976Z,51.85
2022-08-22T09:20:25.015Z,50.11
2022-08-22T09:22:56.615Z,48.84
2022-08-22T09:25:38.566Z,48.28
2022-08-22T09:28:18.349Z,47.06
2022-08-22T09:31:16.606Z,45.08
2022-08-22T09:34:01.597Z,43.14
2022-08-22T09:37:02.907Z,42.50
2022-08-22T09:39:42.821Z,43.77
2022-08-22T09:42:34.200Z,45.25
2022-08-22T09:45:30.719Z,46.31
2022-08-22T09:48:07.770Z,46.15
2022-08-22T09:50:38.614Z,45.05
2022-08-22T09:53:11.090Z,43.58
2022-08-22T09:56:01.370Z,43.52
2022-08-22T09:59:05.164Z,42.69
2022-08-22T10:01:48.364Z,43.00
2022-08-22T10:04:39.349Z,42.91
2022-08-22T10:07:34.949Z,45.15
2022-08-22T10:10:26.250Z,45.86
2022-08-22T10:12:57.403Z,47.00
2022-08-22T10:16:09.015Z,47.78
2022-08-22T10:18:53.900Z,48.22
2022-08-22T10:21:38.377Z,48.59
2022-08-22T10:24:36.434Z,48.44
2022-08-22T10:27:37.444Z,48.59
2022-08-22T10:30:17.890Z,49.95
2022-08-22T10:33:05.307Z,49.90
2022-08-22T10:35:59.324Z,51.20
2022-08-22T10:38:46.119Z,51.08
2022-08-22T10:41:22.551Z,51.60
2022-08-22T10:44:01.042Z,52.64
2022-08-22T10:46:59.078Z,52.22
2022-08-22T10:49:54.361Z,52.44
2022-08-22T10:52:32.194Z,52.41
2022-08-22T10:55:13.006Z,53.10
2022-08-22T10:57:52.827Z,52.84
2022-08-22T11:00:50.306Z,52.42
2022-08-22T11:03:25.958Z,52.54
2022-08-22T11:05:59.855Z,52.90
2022-08-22T11:08:34.933Z,51.85
2022-08-22T11:11:34.463Z,51.20
2022-08-22T11:14:39.708Z,50.49
2022-08-22T11:17:31.110Z,49.63
2022-08-22T11:20:19.814Z,47.58
2022-08-22T11:22:55.672Z,47.12
2022-08-22T11:25:38.842Z,45.27
2022-08-22T11:28:19.971Z,43.70
2022-08-22T11:31:20.762Z,43.79
2022-08-22T11:34:03.679Z,44.38
2022-08-22T11:36:40.362Z,44.52
2022-08-22T11:39:24.044Z,43.88
2022-08-22T11:42:13.725Z,45.10
2022-08-22T11:44:50.684Z,46.04
2022-08-22T11:47:24.194Z,46.76
2022-08-22T11:50:35.183Z,46.81
2022-08-22T11:53:34.494Z,47.27
2022-08-22T11:56:59.975Z,47.36
2022-08-22T11:59:55.713Z,47.47
2022-08-22T12:02:41.954Z,47.70
2022-08-22T12:05:26.135Z,47.58
2022-08-22T12:08:05.518Z,46.16
2022-08-22T12:10:47.328Z,45.99
2022-08-22T12:13:40.445Z,44.65
2022-08-22T12:16:37.245Z,42.84
2022-08-22T12:19:48.890Z,43.54
2022-08-22T12:22:57.897Z,44.52
2022-08-22T12:25:44.489Z,45.13
2022-08-22T12:28:48.459Z,45.47
2022-08-22T12:31:38.314Z,46.09
2022-08-22T12:34:44.677Z,45.40
2022-08-22T12:37:25.619Z,45.59
2022-08-22T12:40:12.159Z,46.60
2022-08-22T12:42:43.934Z,48.19
2022-08-22T12:46:05.816Z,48.34
2022-08-22T12:48:54.771Z,48.14
2022-08-22T12:52:12.282Z,49.30
2022-08-22T12:55:25.810Z,48.66
2022-08-22T12:58:12.288Z,48.00
2022-08-22T13:00:45.402Z,48.33
2022-08-22T13:03:35.675Z,48.18
2022-08-22T13:06:35.805Z,48.28
2022-08-22T13:09:28.938Z,48.24
2022-08-22T13:12:51.050Z,47.49
2022-08-22T13:15:22.139Z,49.10
2022-08-22T13:17:52.756Z,48.67
2022-08-22T13:20:37.080Z,48.29
2022-08-22T13:23:28.629Z,47.29
2022-08-22T13:26:31.669Z,47.82
2022-08-22T13:29:39.324Z,48.00
2022-08-22T13:32:23.689Z,47.80
2022-08-22T13:34:57.005Z,47.36
2022-08-22T13:37:31.917Z,46.81
2022-08-22T13:40:04.861Z,46.01
2022-08-22T13:42:41.177Z,44.09
2022-08-22T13:45:22.685Z,44.11
2022-08-22T13:47:57.637Z,45.05
2022-08-22T13:50:30.125Z,44.70
2022-08-22T13:53:36.278Z,43.26
2022-08-22T13:56:18.106Z,44.50
2022-08-22T13:58:55.955Z,44.82
2022-08-22T14:01:38.071Z,44.98
2022-08-22T14:04:30.934Z,44.90
2022-08-22T14:07:04.573Z,45.71
2022-08-22T14:09:53.310Z,46.54
2022-08-22T14:12:51.100Z,46.76
2022-08-22T14:15:32.140Z,46.60
2022-08-22T14:18:13.975Z,46.54
2022-08-22T14:20:44.779Z,47.09
2022-08-22T14:23:34.426Z,47.90
2022-08-22T14:26:02.781Z,47.68
2022-08-22T14:28:35.817Z,47.43
2022-08-22T14:31:08.735Z,47.32
2022-08-22T14:33:43.825Z,48.20
2022-08-22T14:36:36.250Z,49.06
2022-08-22T14:39:16.853Z,49.34
2022-08-22T14:41:58.656Z,48.67
2022-08-22T14:44:36.971Z,48.83
2022-08-22T14:47:43.235Z,49.62
2022-08-22T14:50:11.289Z,50.54
2022-08-22T14:52:43.728Z,50.81
2022-08-22T14:55:26.416Z,51.39
2022-08-22T14:58:05.954Z,51.54
2022-08-22T15:00:38.617Z,51.37
2022-08-22T15:03:29.135Z,51.36
2022-08-22T15:06:03.631Z,51.41
2022-08-22T15:08:42.335Z,51.92
2022-08-22T15:11:17.297Z,52.43
2022-08-22T15:14:13.683Z,52.68
2022-08-22T15:17:00.968Z,52.99
2022-08-22T15:19:41.014Z,53.16
2022-08-22T15:22:25.773Z,53.73
2022-08-22T15:25:20.024Z,53.52
2022-08-22T15:27:59.509Z,53.11
2022-08-22T15:30:44.310Z,53.97
2022-08-22T15:33:15.778Z,54.57
2022-08-22T15:35:46.539Z,54.76
2022-08-22T15:38:27.812Z,55.14
2022-08-22T15:41:16.858Z,55.58
2022-08-22T15:43:54.304Z,55.79
2022-08-22T15:46:44.062Z,56.12
2022-08-22T15:49:26.065Z,56.31
2022-08-22T15:52:03.193Z,56.75
2022-08-22T15:54:38.910Z,57.08
2022-08-22T15:57:17.755Z,57.02
2022-08-22T15:59:53.877Z,56.94
2022-08-22T16:02:41.088Z,56.84
2022-08-22T16:05:08.998Z,56.54
2022-08-22T16:07:43.958Z,56.92
2022-08-22T16:10:23.986Z,56.85
2022-08-22T16:13:37.995Z,56.91
2022-08-22T16:16:12.644Z,57.51
2022-08-22T16:18:40.487Z,57.58
2022-08-22T16:21:17.725Z,57.75
2022-08-22T16:23:56.519Z,57.72
2022-08-22T16:26:30.478Z,58.06
2022-08-22T16:29:14.785Z,57.97
2022-08-22T16:31:48.794Z,57.99
2022-08-22T16:34:16.838Z,58.06
2022-08-22T16:37:11.007Z,58.11
2022-08-22T16:40:01.990Z,58.18
2022-08-22T16:43:14.216Z,58.27
2022-08-22T16:45:48.860Z,58.43
2022-08-22T16:48:45.833Z,58.53
2022-08-22T16:51:18.995Z,58.71
2022-08-22T16:54:11.827Z,58.89
2022-08-22T16:57:14.654Z,58.98
2022-08-22T16:59:52.840Z,59.00
2022-08-22T17:02:49.767Z,59.39
2022-08-22T17:05:30.307Z,59.69
2022-08-22T17:08:35.784Z,59.97
2022-08-22T17:11:06.870Z,60.15
2022-08-22T17:13:56.294Z,60.32
2022-08-22T17:16:54.123Z,60.46
2022-08-22T17:20:00.843Z,60.74
2022-08-22T17:22:33.009Z,61.15
2022-08-22T17:25:40.604Z,61.42
2022-08-22T17:28:30.086Z,61.64
2022-08-22T17:31:24.776Z,61.84
2022-08-22T17:34:15.380Z,62.26
2022-08-22T17:36:53.793Z,62.42
2022-08-22T17:39:55.973Z,62.63
2022-08-22T17:42:41.123Z,62.96
2022-08-22T17:45:18.209Z,63.13
2022-08-22T17:47:58.614Z,63.53
2022-08-22T17:50:38.716Z,63.80
2022-08-22T17:53:16.344Z,64.36
2022-08-22T17:56:19.504Z,64.51
2022-08-22T17:59:31.304Z,64.68
2022-08-22T18:02:16.717Z,65.44
2022-08-22T18:05:11.174Z,65.56
2022-08-22T18:07:55.317Z,65.97
2022-08-22T18:10:46.428Z,66.71
2022-08-22T18:13:58.267Z,67.21
2022-08-22T18:16:44.110Z,67.96
2022-08-22T18:19:24.271Z,68.25
2022-08-22T18:21:59.850Z,68.48
2022-08-22T18:25:10.937Z,68.68
2022-08-22T18:28:24.327Z,68.80
2022-08-22T18:31:06.220Z,68.89
2022-08-22T18:33:41.771Z,68.89
2022-08-22T18:36:30.390Z,68.92
2022-08-22T18:39:05.603Z,68.96
2022-08-22T18:41:51.341Z,68.93
2022-08-22T18:44:32.005Z,68.98
2022-08-22T18:47:34.492Z,69.05
2022-08-22T18:50:28.292Z,69.33
2022-08-22T18:52:57.572Z,69.40
2022-08-22T18:55:58.475Z,69.60
2022-08-22T18:59:13.901Z,70.15
2022-08-22T19:02:12.261Z,70.53
2022-08-22T19:05:05.937Z,70.72
2022-08-22T19:07:56.742Z,70.91
2022-08-22T19:10:39.455Z,71.43
2022-08-22T19:13:22.685Z,71.84
2022-08-22T19:16:07.014Z,72.12
2022-08-22T19:18:41.485Z,72.87
2022-08-22T19:21:45.255Z,73.14
2022-08-22T19:24:13.243Z,73.59
2022-08-22T19:26:45.096Z,73.76
2022-08-22T19:29:18.932Z,73.87
2022-08-22T19:31:50.805Z,73.95
2022-08-22T19:34:32.888Z,73.85
2022-08-22T19:37:30.682Z,74.01
2022-08-22T19:40:07.723Z,74.00
2022-08-22T19:42:50.316Z,74.31
2022-08-22T19:45:29.298Z,74.53
2022-08-22T19:48:14.137Z,74.84
2022-08-22T19:50:43.906Z,74.85
2022-08-22T19:53:46.296Z,74.88
2022-08-22T19:56:45.297Z,75.15
2022-08-22T19:59:28.626Z,75.26
2022-08-22T20:01:56.583Z,75.66
2022-08-22T20:04:27.215Z,75.51
2022-08-22T20:07:05.786Z,75.79
2022-08-22T20:10:19.324Z,75.85
2022-08-22T20:13:09.199Z,76.14
2022-08-22T20:16:13.687Z,76.22
2022-08-22T20:19:06.036Z,76.41
2022-08-22T20:22:00.737Z,77.01
2022-08-22T20:24:49.357Z,77.41
2022-08-22T20:27:20.215Z,77.29
2022-08-22T20:30:08.236Z,77.65
2022-08-22T20:33:28.732Z,77.99
2022-08-22T20:36:01.725Z,78.01
2022-08-22T20:38:55.469Z,78.01
2022-08-22T20:41:38.241Z,78.36
2022-08-22T20:44:33.426Z,78.30
2022-08-22T20:47:19.430Z,78.63
2022-08-22T20:49:54.887Z,78.76
2022-08-22T20:52:30.878Z,78.84
2022-08-22T20:55:17.434Z,78.93
2022-08-22T20:57:52.847Z,79.12
2022-08-22T21:00:31.913Z,79.24
2022-08-22T21:03:02.704Z,79.50
2022-08-22T21:05:45.460Z,79.49
2022-08-22T21:08:15.039Z,79.60
2022-08-22T21:11:02.162Z,79.93
2022-08-22T21:13:35.671Z,80.02
2022-08-22T21:16:19.842Z,80.09
2022-08-22T21:18:53.285Z,80.24
2022-08-22T21:21:31.692Z,80.30
2022-08-22T21:24:03.525Z,80.29
2022-08-22T21:26:37.040Z,80.44
2022-08-22T21:29:14.422Z,80.61
2022-08-22T21:31:45.031Z,80.77
2022-08-22T21:34:35.633Z,80.93
2022-08-22T21:37:32.443Z,81.01
2022-08-22T21:40:03.088Z,81.11
2022-08-22T21:42:39.197Z,81.29
2022-08-22T21:45:25.361Z,81.26
2022-08-22T21:47:55.173Z,81.54
2022-08-22T21:50:26.101Z,81.64
2022-08-22T21:52:54.015Z,81.83
2022-08-22T21:55:22.075Z,81.97
2022-08-22T21:58:12.113Z,82.15
2022-08-22T22:00:49.805Z,82.29
2022-08-22T22:03:22.963Z,82.22
2022-08-22T22:05:55.115Z,82.31
2022-08-22T22:08:23.355Z,82.42
2022-08-22T22:11:06.035Z,82.38
2022-08-22T22:13:36.645Z,82.46
2022-08-22T22:16:15.115Z,82.76
2022-08-22T22:18:43.115Z,82.88
2022-08-22T22:21:10.971Z,83.01
2022-08-22T22:23:38.905Z,83.07
2022-08-22T22:26:07.202Z,83.22
2022-08-22T22:28:39.834Z,83.43
2022-08-22T22:31:08.805Z,83.55
2022-08-22T22:33:39.995Z,83.64
2022-08-22T22:36:16.435Z,83.89
2022-08-22T22:38:45.048Z,83.93
2022-08-22T22:41:13.274Z,84.02
2022-08-22T22:43:41.328Z,84.01
2022-08-22T22:46:09.407Z,84.28
2022-08-22T22:48:37.578Z,84.32
2022-08-22T22:51:10.793Z,84.49
2022-08-22T22:53:43.180Z,84.52
2022-08-22T22:56:17.857Z,84.61
2022-08-22T22:59:01.124Z,84.70
2022-08-22T23:02:19.219Z,84.76
2022-08-22T23:04:52.535Z,84.79
2022-08-22T23:07:21.757Z,84.86
2022-08-22T23:09:53.433Z,84.90
2022-08-22T23:12:30.057Z,84.98
2022-08-22T23:14:57.938Z,85.14
2022-08-22T23:17:25.882Z,85.20
2022-08-22T23:19:54.045Z,85.32
2022-08-22T23:22:22.355Z,85.35
2022-08-22T23:24:50.682Z,85.43
2022-08-22T23:27:18.768Z,85.50
2022-08-22T23:29:46.925Z,85.75
2022-08-22T23:32:15.006Z,85.70
2022-08-22T23:34:46.247Z,85.66
2022-08-22T23:37:22.093Z,85.68
2022-08-22T23:39:50.289Z,85.75
2022-08-22T23:42:19.878Z,85.90
2022-08-22T23:44:47.811Z,85.85
2022-08-22T23:47:16.105Z,85.95
2022-08-22T23:49:45.183Z,86.22
2022-08-22T23:52:13.993Z,86.30
2022-08-22T23:54:42.265Z,86.30
2022-08-22T23:57:12.216Z,86.46
2022-08-22T23:59:48.585Z,86.49
